sensor_id;sensor_type;location;lat;lon;timestamp;pressure;altitude;pressure_sealevel;temperature;humidity
76551;BME280;65393;53.160;18.170;2023-02-02T00:02:01;100031.40;;;3.17;87.11
76551;BME280;65393;53.160;18.170;2023-02-02T00:04:33;100028.92;;;3.18;87.13
76551;BME280;65393;53.160;18.170;2023-02-02T00:07:01;100030.30;;;3.19;87.19
76551;BME280;65393;53.160;18.170;2023-02-02T00:09:31;100027.13;;;3.21;87.18
76551;BME280;65393;53.160;18.170;2023-02-02T00:11:59;100025.87;;;3.23;86.82
76551;BME280;65393;53.160;18.170;2023-02-02T00:14:27;100023.73;;;3.24;86.87
76551;BME280;65393;53.160;18.170;2023-02-02T00:16:55;100022.15;;;3.25;86.81
76551;BME280;65393;53.160;18.170;2023-02-02T00:19:27;100018.42;;;3.26;87.13
76551;BME280;65393;53.160;18.170;2023-02-02T00:21:56;100015.55;;;3.30;86.82
76551;BME280;65393;53.160;18.170;2023-02-02T00:24:23;100013.26;;;3.30;86.72
76551;BME280;65393;53.160;18.170;2023-02-02T00:26:55;100008.67;;;3.32;86.73
76551;BME280;65393;53.160;18.170;2023-02-02T00:29:28;100009.88;;;3.33;86.69
76551;BME280;65393;53.160;18.170;2023-02-02T00:31:56;100011.29;;;3.33;86.62
76551;BME280;65393;53.160;18.170;2023-02-02T00:34:23;100013.02;;;3.34;86.71
76551;BME280;65393;53.160;18.170;2023-02-02T00:36:51;100007.73;;;3.35;86.61
76551;BME280;65393;53.160;18.170;2023-02-02T00:39:21;100010.34;;;3.36;86.59
76551;BME280;65393;53.160;18.170;2023-02-02T00:41:48;100011.70;;;3.38;86.47
76551;BME280;65393;53.160;18.170;2023-02-02T00:44:15;100008.54;;;3.38;86.50
76551;BME280;65393;53.160;18.170;2023-02-02T00:47:01;100011.32;;;3.39;86.59
76551;BME280;65393;53.160;18.170;2023-02-02T00:49:28;100013.24;;;3.40;86.43
76551;BME280;65393;53.160;18.170;2023-02-02T00:51:55;100013.75;;;3.41;86.30
76551;BME280;65393;53.160;18.170;2023-02-02T00:54:22;100013.18;;;3.43;86.33
76551;BME280;65393;53.160;18.170;2023-02-02T00:56:49;100009.30;;;3.44;86.02
76551;BME280;65393;53.160;18.170;2023-02-02T00:59:15;100003.70;;;3.44;86.00
76551;BME280;65393;53.160;18.170;2023-02-02T01:01:42;100010.47;;;3.46;85.87
76551;BME280;65393;53.160;18.170;2023-02-02T01:04:09;100009.90;;;3.49;85.73
76551;BME280;65393;53.160;18.170;2023-02-02T01:06:35;100002.34;;;3.50;85.61
76551;BME280;65393;53.160;18.170;2023-02-02T01:09:02;99994.95;;;3.50;85.43
76551;BME280;65393;53.160;18.170;2023-02-02T01:11:30;99991.97;;;3.50;85.36
76551;BME280;65393;53.160;18.170;2023-02-02T01:13:57;99992.65;;;3.52;85.00
76551;BME280;65393;53.160;18.170;2023-02-02T01:16:24;99981.91;;;3.54;85.16
76551;BME280;65393;53.160;18.170;2023-02-02T01:18:50;99976.98;;;3.54;84.99
76551;BME280;65393;53.160;18.170;2023-02-02T01:21:18;99972.06;;;3.55;84.91
76551;BME280;65393;53.160;18.170;2023-02-02T01:23:45;99969.77;;;3.55;84.66
76551;BME280;65393;53.160;18.170;2023-02-02T01:26:12;99961.51;;;3.56;84.68
76551;BME280;65393;53.160;18.170;2023-02-02T01:28:39;99960.77;;;3.57;84.37
76551;BME280;65393;53.160;18.170;2023-02-02T01:31:09;99958.81;;;3.58;84.53
76551;BME280;65393;53.160;18.170;2023-02-02T01:33:37;99952.64;;;3.59;84.27
76551;BME280;65393;53.160;18.170;2023-02-02T01:36:08;99951.05;;;3.61;84.08
76551;BME280;65393;53.160;18.170;2023-02-02T01:38:36;99953.12;;;3.62;84.06
76551;BME280;65393;53.160;18.170;2023-02-02T01:41:03;99946.59;;;3.64;84.26
76551;BME280;65393;53.160;18.170;2023-02-02T01:43:52;99945.35;;;3.65;83.79
76551;BME280;65393;53.160;18.170;2023-02-02T01:46:24;99943.95;;;3.65;83.42
76551;BME280;65393;53.160;18.170;2023-02-02T01:48:56;99944.30;;;3.65;83.69
76551;BME280;65393;53.160;18.170;2023-02-02T01:51:48;99946.04;;;3.65;83.76
76551;BME280;65393;53.160;18.170;2023-02-02T01:54:22;99940.09;;;3.65;83.50
76551;BME280;65393;53.160;18.170;2023-02-02T01:56:55;99938.50;;;3.65;84.03
76551;BME280;65393;53.160;18.170;2023-02-02T01:59:24;99938.81;;;3.66;83.96
76551;BME280;65393;53.160;18.170;2023-02-02T02:01:53;99945.52;;;3.65;83.81
76551;BME280;65393;53.160;18.170;2023-02-02T02:04:21;99938.52;;;3.65;83.82
76551;BME280;65393;53.160;18.170;2023-02-02T02:06:50;99938.48;;;3.66;83.85
76551;BME280;65393;53.160;18.170;2023-02-02T02:09:20;99934.77;;;3.66;83.80
76551;BME280;65393;53.160;18.170;2023-02-02T02:11:47;99929.85;;;3.66;83.50
76551;BME280;65393;53.160;18.170;2023-02-02T02:14:14;99921.08;;;3.66;83.64
76551;BME280;65393;53.160;18.170;2023-02-02T02:17:09;99919.40;;;3.64;84.23
76551;BME280;65393;53.160;18.170;2023-02-02T02:26:29;99914.41;;;3.59;83.86
76551;BME280;65393;53.160;18.170;2023-02-02T02:34:52;99915.98;;;3.58;83.91
76551;BME280;65393;53.160;18.170;2023-02-02T02:43:22;99900.31;;;3.55;84.29
76551;BME280;65393;53.160;18.170;2023-02-02T02:45:46;99896.02;;;3.57;84.34
76551;BME280;65393;53.160;18.170;2023-02-02T02:48:14;99892.02;;;3.56;84.73
76551;BME280;65393;53.160;18.170;2023-02-02T02:50:41;99887.48;;;3.55;84.69
76551;BME280;65393;53.160;18.170;2023-02-02T02:53:12;99883.34;;;3.53;84.91
76551;BME280;65393;53.160;18.170;2023-02-02T02:55:59;99877.05;;;3.51;84.80
76551;BME280;65393;53.160;18.170;2023-02-02T02:58:40;99877.24;;;3.50;85.06
76551;BME280;65393;53.160;18.170;2023-02-02T03:01:20;99875.35;;;3.49;85.05
76551;BME280;65393;53.160;18.170;2023-02-02T03:06:29;99869.82;;;3.45;85.13
76551;BME280;65393;53.160;18.170;2023-02-02T03:09:02;99868.30;;;3.43;85.16
76551;BME280;65393;53.160;18.170;2023-02-02T03:11:30;99865.55;;;3.40;85.18
76551;BME280;65393;53.160;18.170;2023-02-02T03:13:57;99856.80;;;3.39;85.25
76551;BME280;65393;53.160;18.170;2023-02-02T03:16:24;99859.44;;;3.38;85.11
76551;BME280;65393;53.160;18.170;2023-02-02T03:18:50;99852.94;;;3.39;85.56
76551;BME280;65393;53.160;18.170;2023-02-02T03:21:17;99850.86;;;3.38;85.54
76551;BME280;65393;53.160;18.170;2023-02-02T03:23:44;99846.86;;;3.36;85.87
76551;BME280;65393;53.160;18.170;2023-02-02T03:26:10;99837.27;;;3.35;85.92
76551;BME280;65393;53.160;18.170;2023-02-02T03:28:38;99836.27;;;3.33;85.88
76551;BME280;65393;53.160;18.170;2023-02-02T03:31:05;99827.52;;;3.31;85.98
76551;BME280;65393;53.160;18.170;2023-02-02T03:33:34;99826.30;;;3.31;85.74
76551;BME280;65393;53.160;18.170;2023-02-02T03:36:02;99826.16;;;3.29;85.88
76551;BME280;65393;53.160;18.170;2023-02-02T03:38:29;99820.58;;;3.28;85.95
76551;BME280;65393;53.160;18.170;2023-02-02T03:40:56;99819.05;;;3.26;85.91
76551;BME280;65393;53.160;18.170;2023-02-02T03:43:24;99819.41;;;3.25;85.90
76551;BME280;65393;53.160;18.170;2023-02-02T03:46:01;99816.85;;;3.23;85.89
76551;BME280;65393;53.160;18.170;2023-02-02T03:48:30;99819.17;;;3.21;85.98
76551;BME280;65393;53.160;18.170;2023-02-02T03:50:57;99812.70;;;3.19;86.24
76551;BME280;65393;53.160;18.170;2023-02-02T03:53:24;99810.47;;;3.17;86.27
76551;BME280;65393;53.160;18.170;2023-02-02T03:55:51;99811.23;;;3.16;86.35
76551;BME280;65393;53.160;18.170;2023-02-02T03:58:17;99807.08;;;3.13;86.51
76551;BME280;65393;53.160;18.170;2023-02-02T04:00:47;99811.72;;;3.09;86.46
76551;BME280;65393;53.160;18.170;2023-02-02T04:03:14;99810.85;;;3.08;86.56
76551;BME280;65393;53.160;18.170;2023-02-02T04:05:41;99812.17;;;3.04;86.77
76551;BME280;65393;53.160;18.170;2023-02-02T04:08:07;99810.70;;;3.00;86.72
76551;BME280;65393;53.160;18.170;2023-02-02T04:10:34;99813.69;;;2.99;86.73
76551;BME280;65393;53.160;18.170;2023-02-02T04:13:01;99813.77;;;2.95;86.96
76551;BME280;65393;53.160;18.170;2023-02-02T04:15:27;99816.48;;;2.92;86.70
76551;BME280;65393;53.160;18.170;2023-02-02T04:17:54;99814.22;;;2.91;86.67
76551;BME280;65393;53.160;18.170;2023-02-02T04:20:21;99813.73;;;2.88;86.68
76551;BME280;65393;53.160;18.170;2023-02-02T04:22:47;99810.67;;;2.85;86.72
76551;BME280;65393;53.160;18.170;2023-02-02T04:25:14;99809.02;;;2.79;86.79
76551;BME280;65393;53.160;18.170;2023-02-02T04:27:41;99808.96;;;2.74;86.89
76551;BME280;65393;53.160;18.170;2023-02-02T04:30:08;99810.63;;;2.70;86.90
76551;BME280;65393;53.160;18.170;2023-02-02T04:32:35;99809.96;;;2.68;86.89
76551;BME280;65393;53.160;18.170;2023-02-02T04:35:02;99807.21;;;2.66;86.78
76551;BME280;65393;53.160;18.170;2023-02-02T04:37:30;99809.91;;;2.63;86.83
76551;BME280;65393;53.160;18.170;2023-02-02T04:39:57;99810.33;;;2.59;86.83
76551;BME280;65393;53.160;18.170;2023-02-02T04:42:24;99809.64;;;2.58;86.82
76551;BME280;65393;53.160;18.170;2023-02-02T04:44:51;99809.90;;;2.55;87.16
76551;BME280;65393;53.160;18.170;2023-02-02T04:47:17;99807.70;;;2.50;87.09
76551;BME280;65393;53.160;18.170;2023-02-02T04:49:44;99809.50;;;2.48;87.18
76551;BME280;65393;53.160;18.170;2023-02-02T04:52:11;99821.44;;;2.46;87.09
76551;BME280;65393;53.160;18.170;2023-02-02T04:54:38;99820.08;;;2.45;87.11
76551;BME280;65393;53.160;18.170;2023-02-02T04:57:04;99823.27;;;2.43;87.07
76551;BME280;65393;53.160;18.170;2023-02-02T04:59:31;99824.00;;;2.42;87.06
76551;BME280;65393;53.160;18.170;2023-02-02T05:01:59;99824.52;;;2.41;87.16
76551;BME280;65393;53.160;18.170;2023-02-02T05:04:26;99827.31;;;2.42;87.20
76551;BME280;65393;53.160;18.170;2023-02-02T05:06:53;99831.17;;;2.42;87.08
76551;BME280;65393;53.160;18.170;2023-02-02T05:09:20;99829.64;;;2.39;87.14
76551;BME280;65393;53.160;18.170;2023-02-02T05:11:47;99832.13;;;2.37;87.06
76551;BME280;65393;53.160;18.170;2023-02-02T05:14:13;99834.77;;;2.36;87.00
76551;BME280;65393;53.160;18.170;2023-02-02T05:16:43;99833.29;;;2.32;87.05
76551;BME280;65393;53.160;18.170;2023-02-02T05:19:11;99841.56;;;2.29;87.38
76551;BME280;65393;53.160;18.170;2023-02-02T05:21:38;99848.23;;;2.27;87.28
76551;BME280;65393;53.160;18.170;2023-02-02T05:24:05;99851.64;;;2.23;87.39
76551;BME280;65393;53.160;18.170;2023-02-02T05:26:31;99865.86;;;2.22;87.55
76551;BME280;65393;53.160;18.170;2023-02-02T05:28:58;99868.70;;;2.18;87.73
76551;BME280;65393;53.160;18.170;2023-02-02T05:31:25;99869.77;;;2.17;87.63
76551;BME280;65393;53.160;18.170;2023-02-02T05:33:52;99876.91;;;2.20;87.65
76551;BME280;65393;53.160;18.170;2023-02-02T05:36:18;99881.27;;;2.21;87.71
76551;BME280;65393;53.160;18.170;2023-02-02T05:38:45;99885.21;;;2.25;87.66
76551;BME280;65393;53.160;18.170;2023-02-02T05:41:12;99885.00;;;2.28;87.58
76551;BME280;65393;53.160;18.170;2023-02-02T05:43:39;99885.99;;;2.32;87.49
76551;BME280;65393;53.160;18.170;2023-02-02T05:46:06;99891.86;;;2.36;87.45
76551;BME280;65393;53.160;18.170;2023-02-02T05:48:32;99900.36;;;2.41;87.39
76551;BME280;65393;53.160;18.170;2023-02-02T05:51:11;99902.87;;;2.46;87.35
76551;BME280;65393;53.160;18.170;2023-02-02T05:53:41;99916.34;;;2.47;87.36
76551;BME280;65393;53.160;18.170;2023-02-02T05:56:11;99920.36;;;2.48;87.33
76551;BME280;65393;53.160;18.170;2023-02-02T05:58:38;99930.48;;;2.50;87.39
76551;BME280;65393;53.160;18.170;2023-02-02T06:01:05;99935.36;;;2.52;87.64
76551;BME280;65393;53.160;18.170;2023-02-02T06:03:32;99937.92;;;2.55;87.53
76551;BME280;65393;53.160;18.170;2023-02-02T06:05:59;99943.80;;;2.60;87.51
76551;BME280;65393;53.160;18.170;2023-02-02T06:08:26;99951.73;;;2.67;87.87
76551;BME280;65393;53.160;18.170;2023-02-02T06:10:52;99959.23;;;2.69;87.97
76551;BME280;65393;53.160;18.170;2023-02-02T06:13:20;99969.70;;;2.70;88.19
76551;BME280;65393;53.160;18.170;2023-02-02T06:15:47;99974.23;;;2.72;88.79
76551;BME280;65393;53.160;18.170;2023-02-02T06:18:14;99981.98;;;2.70;88.76
76551;BME280;65393;53.160;18.170;2023-02-02T06:20:40;99992.86;;;2.68;88.80
76551;BME280;65393;53.160;18.170;2023-02-02T06:23:07;99999.88;;;2.68;89.20
76551;BME280;65393;53.160;18.170;2023-02-02T06:25:34;100004.30;;;2.66;89.31
76551;BME280;65393;53.160;18.170;2023-02-02T06:28:00;100011.36;;;2.64;89.35
76551;BME280;65393;53.160;18.170;2023-02-02T06:30:27;100020.98;;;2.63;88.99
76551;BME280;65393;53.160;18.170;2023-02-02T06:32:54;100025.91;;;2.62;88.68
76551;BME280;65393;53.160;18.170;2023-02-02T06:35:20;100033.03;;;2.66;89.05
76551;BME280;65393;53.160;18.170;2023-02-02T06:37:47;100038.80;;;2.67;89.58
76551;BME280;65393;53.160;18.170;2023-02-02T06:40:14;100045.70;;;2.63;89.60
76551;BME280;65393;53.160;18.170;2023-02-02T06:42:41;100049.54;;;2.64;89.69
76551;BME280;65393;53.160;18.170;2023-02-02T06:45:09;100052.56;;;2.61;89.52
76551;BME280;65393;53.160;18.170;2023-02-02T06:47:36;100062.56;;;2.60;89.84
76551;BME280;65393;53.160;18.170;2023-02-02T06:50:03;100066.40;;;2.61;90.25
76551;BME280;65393;53.160;18.170;2023-02-02T06:52:30;100068.29;;;2.64;90.52
76551;BME280;65393;53.160;18.170;2023-02-02T06:54:57;100075.19;;;2.69;91.14
76551;BME280;65393;53.160;18.170;2023-02-02T06:57:23;100074.23;;;2.64;90.58
76551;BME280;65393;53.160;18.170;2023-02-02T06:59:50;100085.82;;;2.63;90.84
76551;BME280;65393;53.160;18.170;2023-02-02T07:02:17;100100.36;;;2.63;90.85
76551;BME280;65393;53.160;18.170;2023-02-02T07:04:44;100107.70;;;2.63;90.82
76551;BME280;65393;53.160;18.170;2023-02-02T07:07:11;100109.69;;;2.59;90.90
76551;BME280;65393;53.160;18.170;2023-02-02T07:09:38;100114.85;;;2.54;90.59
76551;BME280;65393;53.160;18.170;2023-02-02T07:12:05;100119.09;;;2.53;90.42
76551;BME280;65393;53.160;18.170;2023-02-02T07:14:32;100125.02;;;2.53;90.64
76551;BME280;65393;53.160;18.170;2023-02-02T07:16:59;100132.52;;;2.55;90.91
76551;BME280;65393;53.160;18.170;2023-02-02T07:19:25;100136.95;;;2.53;90.94
76551;BME280;65393;53.160;18.170;2023-02-02T07:21:52;100137.85;;;2.51;90.83
76551;BME280;65393;53.160;18.170;2023-02-02T07:24:19;100143.10;;;2.51;90.80
76551;BME280;65393;53.160;18.170;2023-02-02T07:26:45;100148.54;;;2.50;90.62
76551;BME280;65393;53.160;18.170;2023-02-02T07:29:12;100151.16;;;2.51;90.53
76551;BME280;65393;53.160;18.170;2023-02-02T07:31:40;100157.90;;;2.57;90.84
76551;BME280;65393;53.160;18.170;2023-02-02T07:34:06;100159.44;;;2.60;90.91
76551;BME280;65393;53.160;18.170;2023-02-02T07:36:33;100163.64;;;2.60;90.92
76551;BME280;65393;53.160;18.170;2023-02-02T07:39:00;100168.52;;;2.62;90.43
76551;BME280;65393;53.160;18.170;2023-02-02T07:41:32;100172.14;;;2.66;90.65
76551;BME280;65393;53.160;18.170;2023-02-02T07:44:00;100176.11;;;2.70;90.86
76551;BME280;65393;53.160;18.170;2023-02-02T07:46:27;100178.87;;;2.74;90.98
76551;BME280;65393;53.160;18.170;2023-02-02T07:48:54;100187.58;;;2.77;90.90
76551;BME280;65393;53.160;18.170;2023-02-02T07:51:23;100191.77;;;2.77;90.44
76551;BME280;65393;53.160;18.170;2023-02-02T07:53:52;100195.76;;;2.80;90.18
76551;BME280;65393;53.160;18.170;2023-02-02T07:56:24;100198.88;;;2.83;89.93
76551;BME280;65393;53.160;18.170;2023-02-02T07:58:52;100202.30;;;2.88;90.01
76551;BME280;65393;53.160;18.170;2023-02-02T08:01:20;100202.26;;;2.90;89.85
76551;BME280;65393;53.160;18.170;2023-02-02T08:03:49;100212.20;;;2.94;89.79
76551;BME280;65393;53.160;18.170;2023-02-02T08:08:46;100223.23;;;3.07;90.39
76551;BME280;65393;53.160;18.170;2023-02-02T08:11:15;100231.83;;;3.06;89.75
76551;BME280;65393;53.160;18.170;2023-02-02T08:13:43;100240.34;;;3.11;89.90
76551;BME280;65393;53.160;18.170;2023-02-02T08:16:11;100245.31;;;3.18;89.97
76551;BME280;65393;53.160;18.170;2023-02-02T08:18:38;100254.04;;;3.21;89.77
76551;BME280;65393;53.160;18.170;2023-02-02T08:21:06;100259.02;;;3.28;90.16
76551;BME280;65393;53.160;18.170;2023-02-02T08:23:37;100264.59;;;3.30;90.60
76551;BME280;65393;53.160;18.170;2023-02-02T08:26:11;100269.27;;;3.33;90.63
76551;BME280;65393;53.160;18.170;2023-02-02T08:28:39;100274.30;;;3.38;90.21
76551;BME280;65393;53.160;18.170;2023-02-02T08:31:15;100277.95;;;3.39;90.03
76551;BME280;65393;53.160;18.170;2023-02-02T08:33:42;100285.48;;;3.40;89.63
76551;BME280;65393;53.160;18.170;2023-02-02T08:36:16;100290.36;;;3.53;90.52
76551;BME280;65393;53.160;18.170;2023-02-02T08:38:44;100291.52;;;3.56;89.94
76551;BME280;65393;53.160;18.170;2023-02-02T08:41:13;100295.85;;;3.60;90.39
76551;BME280;65393;53.160;18.170;2023-02-02T08:43:40;100298.19;;;3.67;90.15
76551;BME280;65393;53.160;18.170;2023-02-02T08:46:09;100312.91;;;3.68;89.75
76551;BME280;65393;53.160;18.170;2023-02-02T08:48:36;100319.33;;;3.74;89.43
76551;BME280;65393;53.160;18.170;2023-02-02T08:51:04;100326.55;;;3.72;89.30
76551;BME280;65393;53.160;18.170;2023-02-02T08:53:32;100335.13;;;3.72;89.02
76551;BME280;65393;53.160;18.170;2023-02-02T08:56:08;100343.48;;;3.78;89.30
76551;BME280;65393;53.160;18.170;2023-02-02T08:58:36;100351.98;;;3.84;89.41
76551;BME280;65393;53.160;18.170;2023-02-02T09:01:10;100362.46;;;3.86;88.55
76551;BME280;65393;53.160;18.170;2023-02-02T09:03:38;100367.58;;;3.95;88.56
76551;BME280;65393;53.160;18.170;2023-02-02T09:06:07;100367.42;;;4.04;87.94
76551;BME280;65393;53.160;18.170;2023-02-02T09:08:35;100381.13;;;4.04;87.51
76551;BME280;65393;53.160;18.170;2023-02-02T09:11:11;100385.25;;;4.09;87.55
76551;BME280;65393;53.160;18.170;2023-02-02T09:13:39;100390.73;;;4.08;86.85
76551;BME280;65393;53.160;18.170;2023-02-02T09:16:09;100399.66;;;4.08;86.76
76551;BME280;65393;53.160;18.170;2023-02-02T09:18:36;100405.25;;;4.10;87.06
76551;BME280;65393;53.160;18.170;2023-02-02T09:21:06;100411.50;;;4.16;87.30
76551;BME280;65393;53.160;18.170;2023-02-02T09:23:35;100424.01;;;4.23;86.74
76551;BME280;65393;53.160;18.170;2023-02-02T09:28:46;100440.05;;;4.30;84.93
76551;BME280;65393;53.160;18.170;2023-02-02T09:31:13;100448.21;;;4.35;85.26
76551;BME280;65393;53.160;18.170;2023-02-02T09:33:41;100453.57;;;4.40;85.28
76551;BME280;65393;53.160;18.170;2023-02-02T09:36:14;100464.42;;;4.42;85.09
76551;BME280;65393;53.160;18.170;2023-02-02T09:38:42;100466.05;;;4.39;84.27
76551;BME280;65393;53.160;18.170;2023-02-02T09:49:08;100501.77;;;4.37;82.86
76551;BME280;65393;53.160;18.170;2023-02-02T09:51:47;100506.23;;;4.32;82.67
76551;BME280;65393;53.160;18.170;2023-02-02T09:54:20;100508.65;;;4.25;83.46
76551;BME280;65393;53.160;18.170;2023-02-02T09:56:52;100522.45;;;4.19;83.25
76551;BME280;65393;53.160;18.170;2023-02-02T09:59:24;100525.86;;;4.15;83.31
76551;BME280;65393;53.160;18.170;2023-02-02T10:01:56;100531.52;;;4.22;82.75
76551;BME280;65393;53.160;18.170;2023-02-02T10:04:37;100538.56;;;4.32;82.07
76551;BME280;65393;53.160;18.170;2023-02-02T10:07:12;100542.77;;;4.33;81.71
76551;BME280;65393;53.160;18.170;2023-02-02T10:10:02;100552.20;;;4.37;81.05
76551;BME280;65393;53.160;18.170;2023-02-02T10:15:14;100573.91;;;4.31;81.47
76551;BME280;65393;53.160;18.170;2023-02-02T10:20:45;100580.34;;;4.24;82.63
76551;BME280;65393;53.160;18.170;2023-02-02T10:45:56;100602.06;;;4.51;79.50
76551;BME280;65393;53.160;18.170;2023-02-02T10:48:27;100610.10;;;4.55;79.99
76551;BME280;65393;53.160;18.170;2023-02-02T10:51:02;100618.98;;;4.60;79.35
76551;BME280;65393;53.160;18.170;2023-02-02T10:53:31;100632.92;;;4.67;79.77
76551;BME280;65393;53.160;18.170;2023-02-02T10:56:01;100636.38;;;4.70;78.08
76551;BME280;65393;53.160;18.170;2023-02-02T11:01:07;100644.88;;;4.67;77.58
76551;BME280;65393;53.160;18.170;2023-02-02T11:03:37;100651.61;;;4.65;77.77
76551;BME280;65393;53.160;18.170;2023-02-02T11:06:06;100656.33;;;4.67;78.40
76551;BME280;65393;53.160;18.170;2023-02-02T11:08:53;100658.85;;;4.74;78.15
76551;BME280;65393;53.160;18.170;2023-02-02T11:11:38;100659.79;;;4.81;76.47
76551;BME280;65393;53.160;18.170;2023-02-02T11:16:43;100666.98;;;4.81;75.94
76551;BME280;65393;53.160;18.170;2023-02-02T11:21:44;100665.88;;;4.74;73.56
76551;BME280;65393;53.160;18.170;2023-02-02T11:24:51;100672.33;;;4.77;74.39
76551;BME280;65393;53.160;18.170;2023-02-02T11:29:50;100672.15;;;4.89;74.78
76551;BME280;65393;53.160;18.170;2023-02-02T11:34:46;100673.88;;;4.91;74.54
76551;BME280;65393;53.160;18.170;2023-02-02T11:37:14;100672.58;;;4.95;74.06
76551;BME280;65393;53.160;18.170;2023-02-02T11:39:45;100677.53;;;4.93;74.25
76551;BME280;65393;53.160;18.170;2023-02-02T11:42:16;100688.82;;;4.91;74.95
76551;BME280;65393;53.160;18.170;2023-02-02T11:44:49;100696.52;;;4.93;75.30
76551;BME280;65393;53.160;18.170;2023-02-02T11:49:50;100705.92;;;4.99;75.38
76551;BME280;65393;53.160;18.170;2023-02-02T11:52:20;100709.77;;;5.00;74.61
76551;BME280;65393;53.160;18.170;2023-02-02T11:54:50;100714.67;;;5.02;74.16
76551;BME280;65393;53.160;18.170;2023-02-02T11:57:20;100717.69;;;5.01;73.82
76551;BME280;65393;53.160;18.170;2023-02-02T11:59:50;100719.80;;;4.99;73.78
76551;BME280;65393;53.160;18.170;2023-02-02T12:04:48;100726.96;;;5.04;72.91
76551;BME280;65393;53.160;18.170;2023-02-02T12:07:27;100731.58;;;5.02;73.31
76551;BME280;65393;53.160;18.170;2023-02-02T12:10:09;100739.75;;;4.96;73.58
76551;BME280;65393;53.160;18.170;2023-02-02T12:12:48;100744.39;;;4.90;74.28
76551;BME280;65393;53.160;18.170;2023-02-02T12:23:30;100764.00;;;4.86;73.94
76551;BME280;65393;53.160;18.170;2023-02-02T12:34:55;100789.83;;;4.87;73.37
76551;BME280;65393;53.160;18.170;2023-02-02T12:48:27;100792.64;;;4.87;71.13
76551;BME280;65393;53.160;18.170;2023-02-02T12:56:36;100809.73;;;4.84;69.04
76551;BME280;65393;53.160;18.170;2023-02-02T13:02:32;100819.80;;;4.80;69.12
76551;BME280;65393;53.160;18.170;2023-02-02T13:08:09;100827.14;;;4.85;68.28
76551;BME280;65393;53.160;18.170;2023-02-02T13:10:44;100837.34;;;4.86;67.92
76551;BME280;65393;53.160;18.170;2023-02-02T13:13:16;100852.32;;;4.95;67.69
76551;BME280;65393;53.160;18.170;2023-02-02T13:15:51;100852.77;;;5.01;65.83
76551;BME280;65393;53.160;18.170;2023-02-02T13:18:25;100852.70;;;4.93;63.72
76551;BME280;65393;53.160;18.170;2023-02-02T13:21:00;100855.77;;;4.87;64.38
76551;BME280;65393;53.160;18.170;2023-02-02T13:23:36;100865.73;;;4.78;63.85
76551;BME280;65393;53.160;18.170;2023-02-02T13:26:16;100872.85;;;4.71;63.66
76551;BME280;65393;53.160;18.170;2023-02-02T13:28:58;100877.32;;;4.65;63.89
76551;BME280;65393;53.160;18.170;2023-02-02T13:37:00;100890.00;;;4.46;64.42
76551;BME280;65393;53.160;18.170;2023-02-02T13:39:37;100891.43;;;4.44;64.44
76551;BME280;65393;53.160;18.170;2023-02-02T13:42:19;100899.91;;;4.38;64.50
76551;BME280;65393;53.160;18.170;2023-02-02T13:44:54;100893.63;;;4.35;65.23
76551;BME280;65393;53.160;18.170;2023-02-02T13:47:45;100905.61;;;4.30;66.03
76551;BME280;65393;53.160;18.170;2023-02-02T13:50:18;100908.02;;;4.36;65.87
76551;BME280;65393;53.160;18.170;2023-02-02T14:00:55;100925.20;;;4.39;65.53
76551;BME280;65393;53.160;18.170;2023-02-02T14:03:29;100935.30;;;4.31;64.99
76551;BME280;65393;53.160;18.170;2023-02-02T14:08:33;100947.57;;;4.15;65.92
76551;BME280;65393;53.160;18.170;2023-02-02T14:11:03;100956.58;;;4.08;65.46
76551;BME280;65393;53.160;18.170;2023-02-02T14:13:45;100964.17;;;4.04;64.91
76551;BME280;65393;53.160;18.170;2023-02-02T14:19:01;100977.80;;;3.88;64.80
76551;BME280;65393;53.160;18.170;2023-02-02T14:24:02;100992.06;;;3.82;65.55
76551;BME280;65393;53.160;18.170;2023-02-02T14:34:35;101021.73;;;3.81;65.39
76551;BME280;65393;53.160;18.170;2023-02-02T14:45:42;101064.45;;;3.73;66.79
76551;BME280;65393;53.160;18.170;2023-02-02T14:48:13;101070.59;;;3.72;66.81
76551;BME280;65393;53.160;18.170;2023-02-02T14:50:46;101082.19;;;3.68;66.67
76551;BME280;65393;53.160;18.170;2023-02-02T14:53:30;101092.36;;;3.72;66.67
76551;BME280;65393;53.160;18.170;2023-02-02T14:58:37;101114.34;;;3.62;67.20
76551;BME280;65393;53.160;18.170;2023-02-02T15:06:32;101145.63;;;3.45;68.37
76551;BME280;65393;53.160;18.170;2023-02-02T15:17:34;101180.20;;;3.40;69.02
76551;BME280;65393;53.160;18.170;2023-02-02T15:22:53;101192.31;;;3.24;69.41
76551;BME280;65393;53.160;18.170;2023-02-02T15:25:33;101197.93;;;3.19;69.46
76551;BME280;65393;53.160;18.170;2023-02-02T15:30:58;101210.91;;;3.01;70.03
76551;BME280;65393;53.160;18.170;2023-02-02T15:33:36;101212.31;;;2.99;70.44
76551;BME280;65393;53.160;18.170;2023-02-02T15:36:13;101223.35;;;2.94;70.69
76551;BME280;65393;53.160;18.170;2023-02-02T15:38:42;101229.81;;;2.78;70.93
76551;BME280;65393;53.160;18.170;2023-02-02T15:43:58;101250.83;;;2.69;72.01
76551;BME280;65393;53.160;18.170;2023-02-02T15:46:28;101258.89;;;2.70;72.20
76551;BME280;65393;53.160;18.170;2023-02-02T15:49:36;101263.45;;;2.69;72.45
76551;BME280;65393;53.160;18.170;2023-02-02T15:52:11;101279.91;;;2.64;72.93
76551;BME280;65393;53.160;18.170;2023-02-02T15:54:48;101285.16;;;2.65;73.08
76551;BME280;65393;53.160;18.170;2023-02-02T15:57:26;101291.09;;;2.57;73.19
76551;BME280;65393;53.160;18.170;2023-02-02T15:59:54;101297.21;;;2.50;73.63
76551;BME280;65393;53.160;18.170;2023-02-02T16:02:33;101309.62;;;2.42;73.92
76551;BME280;65393;53.160;18.170;2023-02-02T16:05:22;101315.58;;;2.43;74.04
76551;BME280;65393;53.160;18.170;2023-02-02T16:07:49;101325.34;;;2.34;74.15
76551;BME280;65393;53.160;18.170;2023-02-02T16:10:18;101327.06;;;2.28;74.43
76551;BME280;65393;53.160;18.170;2023-02-02T16:12:46;101337.20;;;2.28;74.48